Aérodrome :
LOGIN :

S'inscrire | Disclaimer

   EN    FR    IT 

 










Légende :    VFR   VFR Marginal   IFR   IFR Intensif   IFR Très Intensif
Visi : 
Plafond : 
>= 8 km
>= 3000ft
5 à 8 km
1000 à 3000 ft
1500m à 5 km
500 à 1000 ft
800 à 1500m
200 à 500 ft
< 800m
< 200 ft
Symboles :   Orages  Brouillard  Fortes neiges  Fortes précipitations  Vent > 20 kt
SIGMETs :   Divers  Orages  Givrage  Turbulence  Onde Orograph.  Cendres Volcan.






- Altitude de l'aérodrome : 245 ft
- Code IATA : BIQ


LFBZ - Biarritz

DERNIER METAR :
  • 181800Z AUTO 10006KT 9999 OVC056 11/05 Q1018 TEMPO 27015G30KT 3000 SHRA OVC015 BKN030TCU

METARs EXPIRÉS :
  • 181730Z AUTO 10006KT 070V130 9999 BKN058 OVC068 11/05 Q1018 TEMPO 27015G30KT 3000 SHRA OVC015 BKN030TCU
  • 181700Z AUTO 10008KT 9999 BKN060 OVC070 11/05 Q1018 TEMPO 27015G30KT 3000 SHRA OVC015 BKN030TCU
  • 181630Z AUTO 09008KT 9999 BKN060 OVC074 12/05 Q1018 TEMPO 3000 SHRA OVC015 BKN030TCU
  • 181600Z AUTO 08010KT 9999 OVC064 12/06 Q1017 TEMPO 3000 SHRA OVC015 BKN030TCU
  • 181530Z AUTO 12006KT 080V180 9999 OVC062 14/05 Q1018 TEMPO 3000 SHRA OVC015 BKN030TCU

TAF TAF LFBZ
Valide du 18 à 18h jusqu'au 19 à 18h UTC


181700Z 1818/1918 10010KT 9999 OVC040
PROB40
TEMPO 1818/1820 27015G30KT
TEMPO 1818/1824 3000 SHRA OVC015 BKN030TCU
PROB40
TEMPO 1900/1903 1500 RA BKN005 OVC020
BECMG 1904/1906 03005KT SCT010 BKN040
BECMG 1910/1912 BKN020
BECMG 1913/1915 SCT030



MET'MAP, la Météo Aéronautique d'un coup d'oeil ! - Copyright ORBIFLY Décembre 2007 - Disclaimer

ORBIFLY MET'MAP TEAM :

Programmation & Développement : Alexandra Zaïnal
Sur une idée originale de : Baudouin d'Aumeries
Assistance à la programmation : Marc-Olivier Méhu
Soutien technique & logistique : Manuel Goepfert

Contact : metmap@orbifly.com




SOURCES & CREDITS :

   NOAA